Dembidollo Airport


Codes: HADD/DEM
Name: Dembidollo Airport
City: Dembidollo
Country: Ethiopia
Elevation: 5200 ft.

Photos at Dembidollo Airport


   Photos courtesy of SpottingLog. You can add your own sightings and photos by signing up for a free trial today.



No photos found.

Weather at Dembidollo Airport


Time (UTC)DescriptionTempratureWindCloud coverageVisibilityPressureHumidity
21-Jun-2024 12:00Light Rain24°C2 mph, NW69%10000m1013hPa66%
21-Jun-2024 15:00Light Rain23°C2 mph, NW68%10000m1013hPa72%
21-Jun-2024 18:00Light Rain19°C4 mph, N78%10000m1014hPa83%
21-Jun-2024 21:00Light Rain16°C4 mph, N100%10000m1016hPa92%
22-Jun-2024 00:00Light Rain15°C4 mph, NE100%9028m1015hPa97%
22-Jun-2024 03:00Light Rain15°C4 mph, NE100%10000m1017hPa98%
22-Jun-2024 06:00Light Rain16°C2 mph, NE100%10000m1017hPa96%
22-Jun-2024 09:00Light Rain20°C2 mph, E100%10000m1016hPa82%
22-Jun-2024 12:00Light Rain21°C2 mph, NE100%10000m1013hPa73%
22-Jun-2024 15:00Overcast Clouds21°C0 mph, NE100%10000m1012hPa82%
22-Jun-2024 18:00Overcast Clouds17°C2 mph, NW100%10000m1014hPa85%
22-Jun-2024 21:00Light Rain16°C2 mph, N100%10000m1016hPa92%
23-Jun-2024 00:00Moderate Rain16°C2 mph, NE100%10000m1015hPa97%
23-Jun-2024 03:00Light Rain16°C2 mph, N100%10000m1016hPa96%
23-Jun-2024 06:00Light Rain17°C2 mph, NE100%10000m1017hPa95%
23-Jun-2024 09:00Light Rain21°C2 mph, S100%10000m1015hPa74%
23-Jun-2024 12:00Light Rain19°C2 mph, W100%10000m1013hPa81%
23-Jun-2024 15:00Overcast Clouds19°C2 mph, SW100%10000m1013hPa79%
23-Jun-2024 18:00Overcast Clouds16°C2 mph, N97%10000m1015hPa79%
23-Jun-2024 21:00Overcast Clouds16°C4 mph, NE92%10000m1016hPa81%
24-Jun-2024 00:00Light Rain15°C7 mph, NE96%10000m1016hPa95%
24-Jun-2024 03:00Light Rain15°C4 mph, NE100%10000m1017hPa96%
24-Jun-2024 06:00Light Rain16°C2 mph, N100%10000m1018hPa97%
24-Jun-2024 09:00Light Rain18°C2 mph, NE100%10000m1017hPa88%
24-Jun-2024 12:00Overcast Clouds21°C4 mph, SE100%10000m1013hPa67%
24-Jun-2024 15:00Overcast Clouds20°C0 mph, NE100%10000m1013hPa79%
24-Jun-2024 18:00Overcast Clouds17°C4 mph, N90%10000m1014hPa83%
24-Jun-2024 21:00Broken Clouds16°C4 mph, N67%10000m1015hPa84%
25-Jun-2024 00:00Light Rain15°C4 mph, NE84%10000m1015hPa93%
25-Jun-2024 03:00Light Rain15°C4 mph, NE100%10000m1016hPa93%
25-Jun-2024 06:00Overcast Clouds18°C2 mph, NE100%10000m1017hPa85%
25-Jun-2024 09:00Light Rain22°C4 mph, E100%10000m1015hPa68%
25-Jun-2024 12:00Light Rain22°C2 mph, NE100%10000m1012hPa71%
25-Jun-2024 15:00Light Rain20°C0 mph, W100%10000m1012hPa83%
25-Jun-2024 18:00Overcast Clouds17°C4 mph, N100%10000m1014hPa85%
25-Jun-2024 21:00Overcast Clouds16°C4 mph, N96%10000m1015hPa85%
26-Jun-2024 00:00Light Rain16°C4 mph, NE97%10000m1013hPa82%
26-Jun-2024 03:00Overcast Clouds15°C4 mph, NE100%10000m1015hPa87%
26-Jun-2024 06:00Light Rain18°C2 mph, E100%10000m1016hPa80%
26-Jun-2024 09:00Light Rain22°C2 mph, W100%10000m1014hPa72%